sensor_id;sensor_type;location;lat;lon;timestamp;P1;durP1;ratioP1;P2;durP2;ratioP2
66112;SDS011;52893;52.870;5.822;2024-02-14T00:00:06;2.70;;;1.80;;
66112;SDS011;52893;52.870;5.822;2024-02-14T00:02:35;5.00;;;2.03;;
66112;SDS011;52893;52.870;5.822;2024-02-14T00:05:03;4.20;;;2.47;;
66112;SDS011;52893;52.870;5.822;2024-02-14T00:07:32;3.05;;;1.42;;
66112;SDS011;52893;52.870;5.822;2024-02-14T00:09:59;4.22;;;1.90;;
66112;SDS011;52893;52.870;5.822;2024-02-14T00:12:28;3.08;;;1.77;;
66112;SDS011;52893;52.870;5.822;2024-02-14T00:14:55;2.28;;;1.75;;
66112;SDS011;52893;52.870;5.822;2024-02-14T00:17:23;3.67;;;2.22;;
66112;SDS011;52893;52.870;5.822;2024-02-14T00:19:51;3.35;;;2.22;;
66112;SDS011;52893;52.870;5.822;2024-02-14T00:22:18;3.92;;;2.00;;
66112;SDS011;52893;52.870;5.822;2024-02-14T00:24:45;4.25;;;2.45;;
66112;SDS011;52893;52.870;5.822;2024-02-14T00:27:13;2.38;;;1.75;;
66112;SDS011;52893;52.870;5.822;2024-02-14T00:29:41;3.63;;;2.25;;
66112;SDS011;52893;52.870;5.822;2024-02-14T00:32:11;2.78;;;2.08;;
66112;SDS011;52893;52.870;5.822;2024-02-14T00:34:43;7.78;;;1.98;;
66112;SDS011;52893;52.870;5.822;2024-02-14T00:37:11;5.15;;;3.30;;
66112;SDS011;52893;52.870;5.822;2024-02-14T00:39:39;3.65;;;1.40;;
66112;SDS011;52893;52.870;5.822;2024-02-14T00:42:06;2.70;;;2.00;;
66112;SDS011;52893;52.870;5.822;2024-02-14T00:44:33;2.35;;;1.83;;
66112;SDS011;52893;52.870;5.822;2024-02-14T00:47:02;3.50;;;2.55;;
66112;SDS011;52893;52.870;5.822;2024-02-14T00:49:30;3.30;;;2.63;;
66112;SDS011;52893;52.870;5.822;2024-02-14T00:51:57;3.22;;;2.25;;
66112;SDS011;52893;52.870;5.822;2024-02-14T00:54:24;1.48;;;1.25;;
66112;SDS011;52893;52.870;5.822;2024-02-14T00:56:52;5.32;;;3.58;;
66112;SDS011;52893;52.870;5.822;2024-02-14T00:59:19;2.90;;;2.47;;
66112;SDS011;52893;52.870;5.822;2024-02-14T01:01:46;2.50;;;1.83;;
66112;SDS011;52893;52.870;5.822;2024-02-14T01:04:15;4.30;;;3.40;;
66112;SDS011;52893;52.870;5.822;2024-02-14T01:06:43;4.80;;;3.38;;
66112;SDS011;52893;52.870;5.822;2024-02-14T01:09:11;2.40;;;2.13;;
66112;SDS011;52893;52.870;5.822;2024-02-14T01:11:38;2.20;;;1.95;;
66112;SDS011;52893;52.870;5.822;2024-02-14T01:14:05;4.45;;;3.55;;
66112;SDS011;52893;52.870;5.822;2024-02-14T01:16:33;2.30;;;2.00;;
66112;SDS011;52893;52.870;5.822;2024-02-14T01:19:00;5.05;;;3.67;;
66112;SDS011;52893;52.870;5.822;2024-02-14T01:21:28;5.65;;;3.42;;
66112;SDS011;52893;52.870;5.822;2024-02-14T01:23:56;4.32;;;3.58;;
66112;SDS011;52893;52.870;5.822;2024-02-14T01:26:23;4.90;;;3.78;;
66112;SDS011;52893;52.870;5.822;2024-02-14T01:28:50;3.15;;;2.60;;
66112;SDS011;52893;52.870;5.822;2024-02-14T01:31:18;3.10;;;2.05;;
66112;SDS011;52893;52.870;5.822;2024-02-14T01:33:45;4.03;;;3.28;;
66112;SDS011;52893;52.870;5.822;2024-02-14T01:36:13;4.10;;;3.45;;
66112;SDS011;52893;52.870;5.822;2024-02-14T01:38:41;2.38;;;2.13;;
66112;SDS011;52893;52.870;5.822;2024-02-14T01:41:09;3.90;;;3.28;;
66112;SDS011;52893;52.870;5.822;2024-02-14T01:43:36;5.15;;;2.90;;
66112;SDS011;52893;52.870;5.822;2024-02-14T01:46:04;3.70;;;3.35;;
66112;SDS011;52893;52.870;5.822;2024-02-14T01:48:36;4.93;;;3.33;;
66112;SDS011;52893;52.870;5.822;2024-02-14T01:51:05;3.80;;;3.45;;
66112;SDS011;52893;52.870;5.822;2024-02-14T01:53:35;3.83;;;3.03;;
66112;SDS011;52893;52.870;5.822;2024-02-14T01:56:05;3.90;;;3.60;;
66112;SDS011;52893;52.870;5.822;2024-02-14T01:58:33;4.13;;;3.60;;
66112;SDS011;52893;52.870;5.822;2024-02-14T02:01:01;3.92;;;3.60;;
66112;SDS011;52893;52.870;5.822;2024-02-14T02:03:29;4.78;;;4.05;;
66112;SDS011;52893;52.870;5.822;2024-02-14T02:06:01;4.43;;;4.03;;
66112;SDS011;52893;52.870;5.822;2024-02-14T02:08:28;4.68;;;4.25;;
66112;SDS011;52893;52.870;5.822;2024-02-14T02:10:56;4.90;;;4.05;;
66112;SDS011;52893;52.870;5.822;2024-02-14T02:13:44;5.03;;;4.53;;
66112;SDS011;52893;52.870;5.822;2024-02-14T02:16:31;5.57;;;5.07;;
66112;SDS011;52893;52.870;5.822;2024-02-14T02:19:28;6.28;;;5.68;;
66112;SDS011;52893;52.870;5.822;2024-02-14T02:22:15;6.30;;;5.70;;
66112;SDS011;52893;52.870;5.822;2024-02-14T02:25:04;8.38;;;6.45;;
66112;SDS011;52893;52.870;5.822;2024-02-14T02:27:35;8.03;;;6.00;;
66112;SDS011;52893;52.870;5.822;2024-02-14T02:30:23;8.52;;;6.65;;
66112;SDS011;52893;52.870;5.822;2024-02-14T02:32:51;8.15;;;7.32;;
66112;SDS011;52893;52.870;5.822;2024-02-14T02:35:18;8.48;;;7.68;;
66112;SDS011;52893;52.870;5.822;2024-02-14T02:38:05;8.32;;;7.45;;
66112;SDS011;52893;52.870;5.822;2024-02-14T02:40:54;9.35;;;8.20;;
66112;SDS011;52893;52.870;5.822;2024-02-14T02:43:41;10.02;;;9.13;;
66112;SDS011;52893;52.870;5.822;2024-02-14T02:46:27;9.60;;;8.60;;
66112;SDS011;52893;52.870;5.822;2024-02-14T02:49:15;8.20;;;7.38;;
66112;SDS011;52893;52.870;5.822;2024-02-14T02:51:46;11.07;;;8.57;;
66112;SDS011;52893;52.870;5.822;2024-02-14T02:54:33;10.50;;;9.50;;
66112;SDS011;52893;52.870;5.822;2024-02-14T02:57:22;10.00;;;9.00;;
66112;SDS011;52893;52.870;5.822;2024-02-14T02:59:52;9.88;;;8.95;;
66112;SDS011;52893;52.870;5.822;2024-02-14T03:02:20;10.93;;;8.65;;
66112;SDS011;52893;52.870;5.822;2024-02-14T03:05:08;9.82;;;8.82;;
66112;SDS011;52893;52.870;5.822;2024-02-14T03:07:56;10.63;;;9.45;;
66112;SDS011;52893;52.870;5.822;2024-02-14T03:10:44;9.73;;;8.73;;
66112;SDS011;52893;52.870;5.822;2024-02-14T03:13:33;10.35;;;9.30;;
66112;SDS011;52893;52.870;5.822;2024-02-14T03:16:21;9.02;;;8.05;;
66112;SDS011;52893;52.870;5.822;2024-02-14T03:18:50;11.27;;;10.13;;
66112;SDS011;52893;52.870;5.822;2024-02-14T03:21:19;11.38;;;9.13;;
66112;SDS011;52893;52.870;5.822;2024-02-14T03:23:47;9.35;;;8.02;;
66112;SDS011;52893;52.870;5.822;2024-02-14T03:26:14;10.77;;;8.18;;
66112;SDS011;52893;52.870;5.822;2024-02-14T03:28:43;9.73;;;8.32;;
66112;SDS011;52893;52.870;5.822;2024-02-14T03:31:10;11.98;;;10.18;;
66112;SDS011;52893;52.870;5.822;2024-02-14T03:33:40;11.73;;;8.70;;
66112;SDS011;52893;52.870;5.822;2024-02-14T03:36:07;10.88;;;9.05;;
66112;SDS011;52893;52.870;5.822;2024-02-14T03:38:35;12.20;;;7.88;;
66112;SDS011;52893;52.870;5.822;2024-02-14T03:41:02;12.35;;;10.93;;
66112;SDS011;52893;52.870;5.822;2024-02-14T03:43:29;11.10;;;7.82;;
66112;SDS011;52893;52.870;5.822;2024-02-14T03:45:59;10.90;;;9.75;;
66112;SDS011;52893;52.870;5.822;2024-02-14T03:48:27;10.35;;;9.05;;
66112;SDS011;52893;52.870;5.822;2024-02-14T03:50:54;12.25;;;9.60;;
66112;SDS011;52893;52.870;5.822;2024-02-14T03:53:21;10.07;;;7.28;;
66112;SDS011;52893;52.870;5.822;2024-02-14T03:55:48;10.77;;;8.52;;
66112;SDS011;52893;52.870;5.822;2024-02-14T03:58:16;10.15;;;7.80;;
66112;SDS011;52893;52.870;5.822;2024-02-14T04:00:48;10.73;;;9.63;;
66112;SDS011;52893;52.870;5.822;2024-02-14T04:03:18;12.95;;;10.10;;
66112;SDS011;52893;52.870;5.822;2024-02-14T04:05:46;7.78;;;4.97;;
66112;SDS011;52893;52.870;5.822;2024-02-14T04:08:13;9.63;;;7.68;;
66112;SDS011;52893;52.870;5.822;2024-02-14T04:10:40;11.63;;;6.35;;
66112;SDS011;52893;52.870;5.822;2024-02-14T04:13:09;9.52;;;6.68;;
66112;SDS011;52893;52.870;5.822;2024-02-14T04:15:36;7.82;;;6.45;;
66112;SDS011;52893;52.870;5.822;2024-02-14T04:18:09;8.93;;;6.65;;
66112;SDS011;52893;52.870;5.822;2024-02-14T04:20:37;13.75;;;8.50;;
66112;SDS011;52893;52.870;5.822;2024-02-14T04:23:05;10.02;;;7.88;;
66112;SDS011;52893;52.870;5.822;2024-02-14T04:25:33;12.13;;;8.90;;
66112;SDS011;52893;52.870;5.822;2024-02-14T04:28:00;9.60;;;6.80;;
66112;SDS011;52893;52.870;5.822;2024-02-14T04:30:29;8.82;;;5.70;;
66112;SDS011;52893;52.870;5.822;2024-02-14T04:33:03;9.27;;;5.88;;
66112;SDS011;52893;52.870;5.822;2024-02-14T04:35:30;11.55;;;6.28;;
66112;SDS011;52893;52.870;5.822;2024-02-14T04:37:59;10.80;;;7.03;;
66112;SDS011;52893;52.870;5.822;2024-02-14T04:40:26;13.90;;;7.30;;
66112;SDS011;52893;52.870;5.822;2024-02-14T04:42:53;10.25;;;6.65;;
66112;SDS011;52893;52.870;5.822;2024-02-14T04:45:21;12.80;;;7.18;;
66112;SDS011;52893;52.870;5.822;2024-02-14T04:47:57;7.72;;;5.13;;
66112;SDS011;52893;52.870;5.822;2024-02-14T04:50:24;13.40;;;6.70;;
66112;SDS011;52893;52.870;5.822;2024-02-14T04:52:51;7.15;;;4.05;;
66112;SDS011;52893;52.870;5.822;2024-02-14T04:55:20;11.13;;;4.05;;
66112;SDS011;52893;52.870;5.822;2024-02-14T04:57:47;12.95;;;4.38;;
66112;SDS011;52893;52.870;5.822;2024-02-14T05:00:15;8.45;;;2.88;;
66112;SDS011;52893;52.870;5.822;2024-02-14T05:02:42;13.27;;;4.53;;
66112;SDS011;52893;52.870;5.822;2024-02-14T05:05:10;11.77;;;4.10;;
66112;SDS011;52893;52.870;5.822;2024-02-14T05:07:46;16.77;;;4.78;;
66112;SDS011;52893;52.870;5.822;2024-02-14T05:10:13;13.20;;;4.13;;
66112;SDS011;52893;52.870;5.822;2024-02-14T05:12:42;16.90;;;4.43;;
66112;SDS011;52893;52.870;5.822;2024-02-14T05:15:09;13.73;;;3.63;;
66112;SDS011;52893;52.870;5.822;2024-02-14T05:17:38;12.90;;;3.95;;
66112;SDS011;52893;52.870;5.822;2024-02-14T05:20:05;13.52;;;3.38;;
66112;SDS011;52893;52.870;5.822;2024-02-14T05:22:35;16.48;;;4.03;;
66112;SDS011;52893;52.870;5.822;2024-02-14T05:25:03;24.88;;;4.65;;
66112;SDS011;52893;52.870;5.822;2024-02-14T05:27:41;27.75;;;5.70;;
66112;SDS011;52893;52.870;5.822;2024-02-14T05:30:08;14.75;;;3.60;;
66112;SDS011;52893;52.870;5.822;2024-02-14T05:32:47;26.90;;;4.60;;
66112;SDS011;52893;52.870;5.822;2024-02-14T05:35:15;19.60;;;4.45;;
66112;SDS011;52893;52.870;5.822;2024-02-14T05:37:42;35.17;;;5.72;;
66112;SDS011;52893;52.870;5.822;2024-02-14T05:40:10;21.27;;;4.47;;
66112;SDS011;52893;52.870;5.822;2024-02-14T05:42:37;29.17;;;5.85;;
66112;SDS011;52893;52.870;5.822;2024-02-14T05:45:07;27.45;;;4.40;;
66112;SDS011;52893;52.870;5.822;2024-02-14T05:47:35;31.58;;;5.95;;
66112;SDS011;52893;52.870;5.822;2024-02-14T05:50:03;30.48;;;5.63;;
66112;SDS011;52893;52.870;5.822;2024-02-14T05:52:32;31.30;;;5.47;;
66112;SDS011;52893;52.870;5.822;2024-02-14T05:54:59;25.08;;;4.68;;
66112;SDS011;52893;52.870;5.822;2024-02-14T05:57:26;29.38;;;4.40;;
66112;SDS011;52893;52.870;5.822;2024-02-14T05:59:54;41.95;;;5.60;;
66112;SDS011;52893;52.870;5.822;2024-02-14T06:02:22;29.50;;;6.05;;
66112;SDS011;52893;52.870;5.822;2024-02-14T06:04:50;22.48;;;4.03;;
66112;SDS011;52893;52.870;5.822;2024-02-14T06:07:17;25.38;;;3.88;;
66112;SDS011;52893;52.870;5.822;2024-02-14T06:09:44;35.85;;;5.00;;
66112;SDS011;52893;52.870;5.822;2024-02-14T06:12:12;15.68;;;2.00;;
66112;SDS011;52893;52.870;5.822;2024-02-14T06:14:39;14.88;;;1.65;;
66112;SDS011;52893;52.870;5.822;2024-02-14T06:17:06;26.30;;;4.45;;
66112;SDS011;52893;52.870;5.822;2024-02-14T06:19:35;31.65;;;3.80;;
66112;SDS011;52893;52.870;5.822;2024-02-14T06:22:04;36.75;;;5.47;;
66112;SDS011;52893;52.870;5.822;2024-02-14T06:24:32;39.75;;;5.97;;
66112;SDS011;52893;52.870;5.822;2024-02-14T06:26:59;37.92;;;5.50;;
66112;SDS011;52893;52.870;5.822;2024-02-14T06:29:26;34.80;;;6.05;;
66112;SDS011;52893;52.870;5.822;2024-02-14T06:31:53;26.73;;;4.10;;
66112;SDS011;52893;52.870;5.822;2024-02-14T06:34:21;38.00;;;5.95;;
66112;SDS011;52893;52.870;5.822;2024-02-14T06:36:49;35.70;;;5.53;;
66112;SDS011;52893;52.870;5.822;2024-02-14T06:39:16;20.23;;;3.63;;
66112;SDS011;52893;52.870;5.822;2024-02-14T06:41:44;30.90;;;4.72;;
66112;SDS011;52893;52.870;5.822;2024-02-14T06:44:12;34.88;;;4.82;;
66112;SDS011;52893;52.870;5.822;2024-02-14T06:46:40;18.40;;;4.18;;
66112;SDS011;52893;52.870;5.822;2024-02-14T06:49:08;24.50;;;4.22;;
66112;SDS011;52893;52.870;5.822;2024-02-14T06:51:35;24.63;;;3.80;;
66112;SDS011;52893;52.870;5.822;2024-02-14T06:54:04;31.13;;;4.95;;
66112;SDS011;52893;52.870;5.822;2024-02-14T06:56:31;19.00;;;4.05;;
66112;SDS011;52893;52.870;5.822;2024-02-14T06:58:59;36.63;;;5.72;;
66112;SDS011;52893;52.870;5.822;2024-02-14T07:01:26;41.65;;;5.97;;
66112;SDS011;52893;52.870;5.822;2024-02-14T07:03:53;22.52;;;4.35;;
66112;SDS011;52893;52.870;5.822;2024-02-14T07:06:21;12.10;;;2.65;;
66112;SDS011;52893;52.870;5.822;2024-02-14T07:08:48;25.50;;;4.22;;
66112;SDS011;52893;52.870;5.822;2024-02-14T07:11:16;20.05;;;3.72;;
66112;SDS011;52893;52.870;5.822;2024-02-14T07:13:44;28.90;;;3.92;;
66112;SDS011;52893;52.870;5.822;2024-02-14T07:16:11;30.42;;;4.30;;
66112;SDS011;52893;52.870;5.822;2024-02-14T07:18:39;38.33;;;5.65;;
66112;SDS011;52893;52.870;5.822;2024-02-14T07:21:07;25.17;;;3.67;;
66112;SDS011;52893;52.870;5.822;2024-02-14T07:23:34;18.23;;;3.55;;
66112;SDS011;52893;52.870;5.822;2024-02-14T07:26:01;31.75;;;5.60;;
66112;SDS011;52893;52.870;5.822;2024-02-14T07:28:30;17.13;;;3.03;;
66112;SDS011;52893;52.870;5.822;2024-02-14T07:30:58;17.02;;;2.85;;
66112;SDS011;52893;52.870;5.822;2024-02-14T07:33:25;7.60;;;1.40;;
66112;SDS011;52893;52.870;5.822;2024-02-14T07:35:52;15.45;;;3.00;;
66112;SDS011;52893;52.870;5.822;2024-02-14T07:38:20;19.60;;;2.88;;
66112;SDS011;52893;52.870;5.822;2024-02-14T07:40:48;17.58;;;3.13;;
66112;SDS011;52893;52.870;5.822;2024-02-14T07:43:21;11.77;;;2.00;;
66112;SDS011;52893;52.870;5.822;2024-02-14T07:45:50;26.88;;;4.55;;
66112;SDS011;52893;52.870;5.822;2024-02-14T07:48:17;31.63;;;4.45;;
66112;SDS011;52893;52.870;5.822;2024-02-14T07:50:44;9.48;;;1.80;;
66112;SDS011;52893;52.870;5.822;2024-02-14T07:53:12;10.27;;;2.40;;
66112;SDS011;52893;52.870;5.822;2024-02-14T07:55:40;6.40;;;1.20;;
66112;SDS011;52893;52.870;5.822;2024-02-14T07:58:07;19.08;;;3.70;;
66112;SDS011;52893;52.870;5.822;2024-02-14T08:00:34;13.90;;;3.60;;
66112;SDS011;52893;52.870;5.822;2024-02-14T08:03:03;24.75;;;4.45;;
66112;SDS011;52893;52.870;5.822;2024-02-14T08:05:31;18.23;;;2.65;;
66112;SDS011;52893;52.870;5.822;2024-02-14T08:07:59;22.45;;;3.72;;
66112;SDS011;52893;52.870;5.822;2024-02-14T08:10:26;19.48;;;2.05;;
66112;SDS011;52893;52.870;5.822;2024-02-14T08:12:54;23.02;;;4.07;;
66112;SDS011;52893;52.870;5.822;2024-02-14T08:15:21;26.35;;;3.92;;
66112;SDS011;52893;52.870;5.822;2024-02-14T08:17:48;8.23;;;1.58;;
66112;SDS011;52893;52.870;5.822;2024-02-14T08:20:17;20.70;;;3.95;;
66112;SDS011;52893;52.870;5.822;2024-02-14T08:22:53;19.90;;;3.58;;
66112;SDS011;52893;52.870;5.822;2024-02-14T08:25:20;15.77;;;2.92;;
66112;SDS011;52893;52.870;5.822;2024-02-14T08:27:47;22.85;;;4.68;;
66112;SDS011;52893;52.870;5.822;2024-02-14T08:30:15;15.20;;;3.28;;
66112;SDS011;52893;52.870;5.822;2024-02-14T08:32:43;20.23;;;3.88;;
66112;SDS011;52893;52.870;5.822;2024-02-14T08:35:10;16.83;;;4.15;;
66112;SDS011;52893;52.870;5.822;2024-02-14T08:37:40;18.50;;;4.35;;
66112;SDS011;52893;52.870;5.822;2024-02-14T08:40:08;17.90;;;4.10;;
66112;SDS011;52893;52.870;5.822;2024-02-14T08:42:37;28.38;;;6.22;;
66112;SDS011;52893;52.870;5.822;2024-02-14T08:45:07;14.77;;;3.58;;
66112;SDS011;52893;52.870;5.822;2024-02-14T08:47:35;18.75;;;3.55;;
66112;SDS011;52893;52.870;5.822;2024-02-14T08:50:03;17.98;;;4.85;;
66112;SDS011;52893;52.870;5.822;2024-02-14T08:52:30;13.95;;;3.50;;
66112;SDS011;52893;52.870;5.822;2024-02-14T08:54:59;20.55;;;5.57;;
66112;SDS011;52893;52.870;5.822;2024-02-14T08:57:26;14.05;;;3.58;;
66112;SDS011;52893;52.870;5.822;2024-02-14T08:59:54;7.20;;;2.38;;
66112;SDS011;52893;52.870;5.822;2024-02-14T09:02:22;12.20;;;4.53;;
66112;SDS011;52893;52.870;5.822;2024-02-14T09:04:51;14.95;;;4.97;;
66112;SDS011;52893;52.870;5.822;2024-02-14T09:07:18;9.82;;;4.22;;
66112;SDS011;52893;52.870;5.822;2024-02-14T09:09:45;7.68;;;3.35;;
66112;SDS011;52893;52.870;5.822;2024-02-14T09:12:14;16.30;;;4.32;;
66112;SDS011;52893;52.870;5.822;2024-02-14T09:14:42;10.65;;;3.92;;
66112;SDS011;52893;52.870;5.822;2024-02-14T09:17:09;8.40;;;2.75;;
66112;SDS011;52893;52.870;5.822;2024-02-14T09:19:36;12.40;;;4.43;;
66112;SDS011;52893;52.870;5.822;2024-02-14T09:22:04;12.40;;;5.53;;
66112;SDS011;52893;52.870;5.822;2024-02-14T09:24:32;10.98;;;4.88;;
66112;SDS011;52893;52.870;5.822;2024-02-14T09:26:59;11.05;;;5.32;;
66112;SDS011;52893;52.870;5.822;2024-02-14T09:29:29;12.77;;;4.82;;
66112;SDS011;52893;52.870;5.822;2024-02-14T09:31:56;8.10;;;4.28;;
66112;SDS011;52893;52.870;5.822;2024-02-14T09:34:24;8.77;;;4.30;;
66112;SDS011;52893;52.870;5.822;2024-02-14T09:36:51;10.95;;;5.38;;
66112;SDS011;52893;52.870;5.822;2024-02-14T09:39:19;7.55;;;3.50;;
66112;SDS011;52893;52.870;5.822;2024-02-14T09:41:47;10.95;;;5.20;;
66112;SDS011;52893;52.870;5.822;2024-02-14T09:44:18;9.15;;;4.50;;
66112;SDS011;52893;52.870;5.822;2024-02-14T09:46:47;17.13;;;5.90;;
66112;SDS011;52893;52.870;5.822;2024-02-14T09:49:15;20.17;;;6.38;;
66112;SDS011;52893;52.870;5.822;2024-02-14T09:51:43;13.45;;;4.90;;
66112;SDS011;52893;52.870;5.822;2024-02-14T09:54:12;23.75;;;6.22;;
66112;SDS011;52893;52.870;5.822;2024-02-14T09:56:47;16.30;;;6.03;;
66112;SDS011;52893;52.870;5.822;2024-02-14T09:59:16;15.93;;;6.38;;
66112;SDS011;52893;52.870;5.822;2024-02-14T10:01:44;16.90;;;7.07;;
66112;SDS011;52893;52.870;5.822;2024-02-14T10:04:13;10.77;;;5.60;;
66112;SDS011;52893;52.870;5.822;2024-02-14T10:06:41;15.48;;;6.90;;
66112;SDS011;52893;52.870;5.822;2024-02-14T10:09:08;14.85;;;6.82;;
66112;SDS011;52893;52.870;5.822;2024-02-14T10:14:04;8.98;;;5.00;;
66112;SDS011;52893;52.870;5.822;2024-02-14T10:16:35;11.05;;;4.70;;
66112;SDS011;52893;52.870;5.822;2024-02-14T10:19:16;13.55;;;6.22;;
66112;SDS011;52893;52.870;5.822;2024-02-14T10:21:54;15.32;;;8.00;;
66112;SDS011;52893;52.870;5.822;2024-02-14T10:26:51;12.90;;;7.43;;
66112;SDS011;52893;52.870;5.822;2024-02-14T10:29:19;13.18;;;7.13;;
66112;SDS011;52893;52.870;5.822;2024-02-14T10:31:48;13.65;;;6.43;;
66112;SDS011;52893;52.870;5.822;2024-02-14T10:34:19;12.48;;;6.43;;
66112;SDS011;52893;52.870;5.822;2024-02-14T10:36:52;16.50;;;7.63;;
66112;SDS011;52893;52.870;5.822;2024-02-14T10:39:24;15.07;;;7.97;;
66112;SDS011;52893;52.870;5.822;2024-02-14T10:41:53;10.40;;;6.50;;
66112;SDS011;52893;52.870;5.822;2024-02-14T10:44:21;13.75;;;6.93;;
66112;SDS011;52893;52.870;5.822;2024-02-14T10:46:51;9.63;;;6.15;;
66112;SDS011;52893;52.870;5.822;2024-02-14T10:49:24;10.43;;;5.60;;
66112;SDS011;52893;52.870;5.822;2024-02-14T10:51:56;7.53;;;5.45;;
66112;SDS011;52893;52.870;5.822;2024-02-14T10:54:28;8.95;;;6.65;;
66112;SDS011;52893;52.870;5.822;2024-02-14T10:56:57;10.85;;;6.80;;
66112;SDS011;52893;52.870;5.822;2024-02-14T10:59:28;10.57;;;6.93;;
66112;SDS011;52893;52.870;5.822;2024-02-14T11:01:58;11.40;;;8.15;;
66112;SDS011;52893;52.870;5.822;2024-02-14T11:04:29;10.65;;;6.13;;
66112;SDS011;52893;52.870;5.822;2024-02-14T11:06:58;10.20;;;8.18;;
66112;SDS011;52893;52.870;5.822;2024-02-14T11:09:31;9.60;;;7.70;;
66112;SDS011;52893;52.870;5.822;2024-02-14T11:12:00;10.25;;;6.20;;
66112;SDS011;52893;52.870;5.822;2024-02-14T11:14:31;9.98;;;6.28;;
66112;SDS011;52893;52.870;5.822;2024-02-14T11:16:59;9.43;;;6.28;;
66112;SDS011;52893;52.870;5.822;2024-02-14T11:19:32;10.20;;;6.25;;
66112;SDS011;52893;52.870;5.822;2024-02-14T11:22:09;9.32;;;7.13;;
66112;SDS011;52893;52.870;5.822;2024-02-14T11:24:39;9.43;;;6.22;;
66112;SDS011;52893;52.870;5.822;2024-02-14T11:27:13;5.60;;;4.15;;
66112;SDS011;52893;52.870;5.822;2024-02-14T11:29:51;5.53;;;4.65;;
66112;SDS011;52893;52.870;5.822;2024-02-14T11:32:27;4.53;;;4.07;;
66112;SDS011;52893;52.870;5.822;2024-02-14T11:34:58;5.07;;;4.50;;
66112;SDS011;52893;52.870;5.822;2024-02-14T11:37:27;4.82;;;4.00;;
66112;SDS011;52893;52.870;5.822;2024-02-14T11:39:57;5.03;;;4.53;;
66112;SDS011;52893;52.870;5.822;2024-02-14T11:42:24;4.28;;;3.88;;
66112;SDS011;52893;52.870;5.822;2024-02-14T11:44:54;4.35;;;3.22;;
66112;SDS011;52893;52.870;5.822;2024-02-14T11:47:24;4.95;;;4.38;;
66112;SDS011;52893;52.870;5.822;2024-02-14T11:49:51;4.72;;;4.30;;
66112;SDS011;52893;52.870;5.822;2024-02-14T11:52:21;6.53;;;5.28;;
66112;SDS011;52893;52.870;5.822;2024-02-14T11:54:49;5.93;;;4.65;;
66112;SDS011;52893;52.870;5.822;2024-02-14T11:57:17;5.63;;;5.13;;
66112;SDS011;52893;52.870;5.822;2024-02-14T11:59:48;4.50;;;4.10;;
66112;SDS011;52893;52.870;5.822;2024-02-14T12:02:20;5.57;;;5.07;;
66112;SDS011;52893;52.870;5.822;2024-02-14T12:04:51;9.87;;;6.80;;
66112;SDS011;52893;52.870;5.822;2024-02-14T12:07:21;7.10;;;5.40;;
66112;SDS011;52893;52.870;5.822;2024-02-14T12:09:50;7.32;;;5.95;;
66112;SDS011;52893;52.870;5.822;2024-02-14T12:12:19;14.07;;;6.93;;
66112;SDS011;52893;52.870;5.822;2024-02-14T12:14:51;8.88;;;7.82;;
66112;SDS011;52893;52.870;5.822;2024-02-14T12:17:20;8.77;;;5.60;;
66112;SDS011;52893;52.870;5.822;2024-02-14T12:19:48;9.70;;;7.03;;
66112;SDS011;52893;52.870;5.822;2024-02-14T12:22:22;7.97;;;5.70;;
66112;SDS011;52893;52.870;5.822;2024-02-14T12:24:55;9.82;;;7.22;;
66112;SDS011;52893;52.870;5.822;2024-02-14T12:27:24;8.48;;;5.85;;
66112;SDS011;52893;52.870;5.822;2024-02-14T12:29:53;8.68;;;5.88;;
66112;SDS011;52893;52.870;5.822;2024-02-14T12:32:23;8.73;;;6.90;;
66112;SDS011;52893;52.870;5.822;2024-02-14T12:34:51;13.48;;;8.63;;
66112;SDS011;52893;52.870;5.822;2024-02-14T12:37:20;9.18;;;6.60;;
66112;SDS011;52893;52.870;5.822;2024-02-14T12:39:50;9.35;;;8.23;;
66112;SDS011;52893;52.870;5.822;2024-02-14T12:42:22;12.15;;;8.40;;
66112;SDS011;52893;52.870;5.822;2024-02-14T12:44:51;5.00;;;4.00;;
66112;SDS011;52893;52.870;5.822;2024-02-14T12:47:21;11.57;;;8.25;;
66112;SDS011;52893;52.870;5.822;2024-02-14T12:49:50;8.60;;;6.75;;
66112;SDS011;52893;52.870;5.822;2024-02-14T12:52:19;8.15;;;6.25;;
66112;SDS011;52893;52.870;5.822;2024-02-14T12:54:50;6.10;;;5.50;;
66112;SDS011;52893;52.870;5.822;2024-02-14T12:57:23;6.05;;;4.45;;
66112;SDS011;52893;52.870;5.822;2024-02-14T12:59:52;8.23;;;6.10;;
66112;SDS011;52893;52.870;5.822;2024-02-14T13:02:20;5.63;;;5.13;;
66112;SDS011;52893;52.870;5.822;2024-02-14T13:04:49;7.00;;;5.63;;
66112;SDS011;52893;52.870;5.822;2024-02-14T13:07:16;5.68;;;4.97;;
66112;SDS011;52893;52.870;5.822;2024-02-14T13:09:45;7.07;;;5.63;;
66112;SDS011;52893;52.870;5.822;2024-02-14T13:12:16;7.85;;;6.00;;
66112;SDS011;52893;52.870;5.822;2024-02-14T13:14:44;6.30;;;4.40;;
66112;SDS011;52893;52.870;5.822;2024-02-14T13:17:13;8.63;;;6.40;;
66112;SDS011;52893;52.870;5.822;2024-02-14T13:19:40;6.53;;;4.35;;
66112;SDS011;52893;52.870;5.822;2024-02-14T13:22:08;7.30;;;6.40;;
66112;SDS011;52893;52.870;5.822;2024-02-14T13:24:36;7.05;;;6.35;;
66112;SDS011;52893;52.870;5.822;2024-02-14T13:27:06;6.43;;;5.90;;
66112;SDS011;52893;52.870;5.822;2024-02-14T13:29:37;4.93;;;4.43;;
66112;SDS011;52893;52.870;5.822;2024-02-14T13:32:06;6.75;;;6.10;;
66112;SDS011;52893;52.870;5.822;2024-02-14T13:34:35;6.53;;;5.93;;
66112;SDS011;52893;52.870;5.822;2024-02-14T13:37:04;6.05;;;5.13;;
66112;SDS011;52893;52.870;5.822;2024-02-14T13:39:32;5.93;;;5.32;;
66112;SDS011;52893;52.870;5.822;2024-02-14T13:42:00;6.05;;;5.50;;
66112;SDS011;52893;52.870;5.822;2024-02-14T13:44:29;5.60;;;5.10;;
66112;SDS011;52893;52.870;5.822;2024-02-14T13:47:00;4.90;;;4.35;;
66112;SDS011;52893;52.870;5.822;2024-02-14T13:49:29;4.55;;;4.13;;
66112;SDS011;52893;52.870;5.822;2024-02-14T13:51:56;5.00;;;3.58;;
66112;SDS011;52893;52.870;5.822;2024-02-14T13:54:24;3.25;;;2.95;;
66112;SDS011;52893;52.870;5.822;2024-02-14T13:56:52;4.57;;;4.15;;
66112;SDS011;52893;52.870;5.822;2024-02-14T13:59:21;4.50;;;4.10;;
66112;SDS011;52893;52.870;5.822;2024-02-14T14:01:48;4.13;;;3.72;;
66112;SDS011;52893;52.870;5.822;2024-02-14T14:04:18;4.47;;;4.07;;
66112;SDS011;52893;52.870;5.822;2024-02-14T14:06:47;4.97;;;3.83;;
66112;SDS011;52893;52.870;5.822;2024-02-14T14:09:15;4.32;;;3.67;;
66112;SDS011;52893;52.870;5.822;2024-02-14T14:11:45;4.70;;;4.20;;
66112;SDS011;52893;52.870;5.822;2024-02-14T14:14:16;5.18;;;4.45;;
66112;SDS011;52893;52.870;5.822;2024-02-14T14:16:46;4.30;;;3.90;;
66112;SDS011;52893;52.870;5.822;2024-02-14T14:19:13;5.45;;;4.72;;
66112;SDS011;52893;52.870;5.822;2024-02-14T14:21:42;5.45;;;4.88;;
66112;SDS011;52893;52.870;5.822;2024-02-14T14:24:10;4.32;;;3.92;;
66112;SDS011;52893;52.870;5.822;2024-02-14T14:26:38;5.00;;;4.50;;
66112;SDS011;52893;52.870;5.822;2024-02-14T14:29:08;7.13;;;4.57;;
66112;SDS011;52893;52.870;5.822;2024-02-14T14:31:37;6.22;;;5.65;;
66112;SDS011;52893;52.870;5.822;2024-02-14T14:34:04;5.53;;;5.00;;
66112;SDS011;52893;52.870;5.822;2024-02-14T14:36:34;1.58;;;1.48;;
66112;SDS011;52893;52.870;5.822;2024-02-14T14:39:05;5.78;;;5.18;;
66112;SDS011;52893;52.870;5.822;2024-02-14T14:41:33;3.85;;;3.55;;
66112;SDS011;52893;52.870;5.822;2024-02-14T14:44:03;4.88;;;3.53;;
66112;SDS011;52893;52.870;5.822;2024-02-14T14:46:32;5.72;;;5.13;;
66112;SDS011;52893;52.870;5.822;2024-02-14T14:49:02;4.30;;;3.80;;
66112;SDS011;52893;52.870;5.822;2024-02-14T14:51:29;4.55;;;4.15;;
66112;SDS011;52893;52.870;5.822;2024-02-14T14:53:57;4.10;;;3.70;;
66112;SDS011;52893;52.870;5.822;2024-02-14T14:56:27;3.50;;;3.20;;
66112;SDS011;52893;52.870;5.822;2024-02-14T14:58:56;3.70;;;3.40;;